Time;durP1;ratioP1;P1;durP2;ratioP2;P2;SDS_P1;SDS_P2;PMS_P1;PMS_P2;Temp;Humidity;BMP_temperature;BMP_pressure;BME280_temperature;BME280_humidity;BME280_pressure;Samples;Min_cycle;Max_cycle;Signal;HPM_P1;HPM_P2
2021/12/06 00:01:33;;;;;;;14.40;12.70;;;3.40;99.90;;;;;;5000454;28;20217;-71
2021/12/06 00:04:09;;;;;;;14.47;12.90;;;3.30;99.90;;;;;;4993053;28;20438;-71
2021/12/06 00:06:37;;;;;;;12.93;10.70;;;3.30;99.90;;;;;;4992427;28;20457;-71
2021/12/06 00:09:07;;;;;;;11.73;9.50;;;3.30;99.90;;;;;;4992791;28;20435;-71
2021/12/06 00:11:34;;;;;;;10.07;9.17;;;3.40;99.90;;;;;;4992403;28;20526;-71
2021/12/06 00:14:01;;;;;;;12.60;10.70;;;3.50;99.90;;;;;;4997915;28;20528;-71
2021/12/06 00:16:27;;;;;;;11.57;10.57;;;3.50;99.90;;;;;;4992857;28;20505;-71
2021/12/06 00:18:53;;;;;;;13.97;10.20;;;3.60;99.90;;;;;;4986437;28;20431;-71
2021/12/06 00:21:20;;;;;;;11.10;9.90;;;3.80;99.90;;;;;;5008360;28;20214;-71
2021/12/06 00:23:46;;;;;;;10.07;8.63;;;3.70;99.90;;;;;;5007993;28;20550;-71
2021/12/06 00:26:12;;;;;;;10.40;8.57;;;3.70;99.90;;;;;;4992173;28;20527;-71
2021/12/06 00:28:40;;;;;;;10.40;8.90;;;3.70;99.90;;;;;;4995558;28;20529;-71
2021/12/06 00:31:06;;;;;;;11.80;9.97;;;3.70;99.90;;;;;;4992376;28;20537;-71
2021/12/06 00:33:31;;;;;;;11.50;10.10;;;3.70;99.90;;;;;;5003822;28;20942;-71
2021/12/06 00:36:03;;;;;;;9.73;8.30;;;3.80;99.90;;;;;;4999125;28;20466;-71
2021/12/06 00:38:30;;;;;;;12.83;8.10;;;3.70;99.90;;;;;;4993658;28;20270;-71
2021/12/06 00:40:56;;;;;;;8.70;7.90;;;3.60;99.90;;;;;;4993337;28;20469;-71
2021/12/06 00:43:22;;;;;;;10.87;8.50;;;3.70;99.90;;;;;;4993823;28;20430;-71
2021/12/06 00:45:47;;;;;;;9.93;8.90;;;3.70;99.90;;;;;;4995565;28;20478;-71
2021/12/06 00:48:13;;;;;;;9.00;8.20;;;3.70;99.90;;;;;;4996263;28;20657;-71
2021/12/06 00:50:41;;;;;;;11.40;8.77;;;3.70;99.90;;;;;;5005320;28;20190;-70
2021/12/06 00:53:07;;;;;;;10.37;9.37;;;3.80;99.90;;;;;;4993361;28;20253;-71
2021/12/06 00:55:33;;;;;;;10.13;9.23;;;3.80;99.90;;;;;;5003781;28;20534;-71
2021/12/06 00:57:59;;;;;;;12.60;9.97;;;3.80;99.90;;;;;;4999275;28;20983;-71
2021/12/06 01:00:50;;;;;;;9.80;8.60;;;3.80;99.90;;;;;;4991868;28;20462;-71
2021/12/06 01:03:19;;;;;;;9.40;8.50;;;3.80;99.90;;;;;;4990158;28;20443;-71
2021/12/06 01:05:45;;;;;;;10.23;8.17;;;3.90;99.90;;;;;;4992673;28;20458;-71
2021/12/06 01:08:11;;;;;;;9.60;7.87;;;3.80;99.90;;;;;;4993012;28;20426;-71
2021/12/06 01:10:38;;;;;;;8.93;8.03;;;3.70;99.90;;;;;;5003366;28;20185;-71
2021/12/06 01:13:04;;;;;;;8.40;7.60;;;3.60;99.90;;;;;;4991981;28;20188;-69
2021/12/06 01:15:32;;;;;;;8.50;7.33;;;3.50;99.90;;;;;;4999646;28;20927;-70
2021/12/06 01:17:59;;;;;;;8.30;7.50;;;3.60;99.90;;;;;;5002975;28;20815;-71
2021/12/06 01:20:29;;;;;;;9.40;6.90;;;3.60;99.90;;;;;;4994906;28;20466;-71
2021/12/06 01:23:05;;;;;;;9.67;7.50;;;3.50;99.90;;;;;;5006200;28;20534;-70
2021/12/06 01:26:13;;;;;;;9.30;8.20;;;3.50;99.90;;;;;;5000419;28;20575;-71
2021/12/06 01:31:07;;;;;;;8.47;7.60;;;3.50;99.90;;;;;;5006705;28;20442;-70
2021/12/06 01:39:25;;;;;;;12.10;8.10;;;3.50;99.90;;;;;;4977676;28;20524;-70
2021/12/06 01:42:02;;;;;;;8.33;7.53;;;3.50;99.90;;;;;;4981879;28;20482;-71
2021/12/06 01:44:43;;;;;;;8.67;7.57;;;3.50;99.90;;;;;;5010465;28;20497;-70
2021/12/06 01:47:16;;;;;;;7.77;7.07;;;3.50;99.90;;;;;;4990329;28;20454;-70
2021/12/06 01:49:49;;;;;;;8.17;7.37;;;3.50;99.90;;;;;;4995774;28;20813;-71
2021/12/06 01:52:21;;;;;;;9.80;8.00;;;3.50;99.90;;;;;;5005457;28;20990;-70
2021/12/06 01:54:48;;;;;;;9.23;8.33;;;3.60;99.90;;;;;;5001156;28;20501;-70
2021/12/06 01:57:14;;;;;;;9.93;8.03;;;3.60;99.90;;;;;;4994125;28;20832;-71
2021/12/06 01:59:40;;;;;;;9.73;8.30;;;3.70;99.90;;;;;;4997113;28;20446;-71
2021/12/06 02:02:07;;;;;;;8.77;7.87;;;3.60;99.90;;;;;;5000197;28;20496;-71
2021/12/06 02:04:35;;;;;;;8.47;7.73;;;3.60;99.90;;;;;;4985916;28;20790;-71
2021/12/06 02:07:01;;;;;;;8.43;7.67;;;3.60;99.90;;;;;;4996982;28;20533;-71
2021/12/06 02:09:28;;;;;;;8.30;7.43;;;3.60;99.90;;;;;;4997196;28;20430;-71
2021/12/06 02:11:57;;;;;;;9.37;8.40;;;3.60;99.90;;;;;;5002554;28;20441;-71
2021/12/06 02:15:26;;;;;;;9.10;8.37;;;3.60;99.90;;;;;;5009525;28;20434;-71
2021/12/06 02:17:22;;;;;;;9.43;8.20;;;3.60;99.90;;;;;;4983836;28;20490;-70
2021/12/06 02:19:54;;;;;;;13.40;9.40;;;3.60;99.90;;;;;;4994659;28;20438;-71
2021/12/06 02:22:25;;;;;;;11.70;9.57;;;3.50;99.90;;;;;;5005470;28;20434;-71
2021/12/06 02:24:53;;;;;;;14.53;10.17;;;3.60;99.90;;;;;;5004596;28;20677;-70
2021/12/06 02:27:21;;;;;;;10.53;9.10;;;3.60;99.90;;;;;;4999639;28;20470;-71
2021/12/06 02:29:49;;;;;;;9.27;8.27;;;3.50;99.90;;;;;;4993957;28;20493;-70
2021/12/06 02:32:15;;;;;;;10.37;8.13;;;3.60;99.90;;;;;;4996881;28;20418;-71
2021/12/06 02:34:45;;;;;;;9.70;8.73;;;3.60;99.90;;;;;;5001961;28;20792;-71
2021/12/06 02:37:17;;;;;;;11.30;10.10;;;3.60;99.90;;;;;;4995070;28;20525;-71
2021/12/06 02:39:42;;;;;;;11.63;9.83;;;3.60;99.90;;;;;;4985465;28;20492;-71
2021/12/06 02:42:12;;;;;;;11.57;9.00;;;3.50;99.90;;;;;;5001246;28;20461;-71
2021/12/06 02:44:38;;;;;;;11.30;9.37;;;3.50;99.90;;;;;;5002681;28;20214;-71
2021/12/06 02:47:04;;;;;;;12.77;10.57;;;3.50;99.90;;;;;;5004856;28;20459;-70
2021/12/06 02:49:29;;;;;;;15.07;11.80;;;3.40;99.90;;;;;;4995134;28;20430;-70
2021/12/06 02:51:55;;;;;;;12.47;11.27;;;3.40;99.90;;;;;;5002908;28;20179;-70
2021/12/06 02:54:22;;;;;;;12.20;10.73;;;3.40;99.90;;;;;;5009119;28;20616;-71
2021/12/06 02:59:35;;;;;;;12.27;11.07;;;3.40;99.90;;;;;;5001779;28;20561;-71
2021/12/06 03:02:06;;;;;;;12.87;11.50;;;3.40;99.90;;;;;;4998995;28;20805;-71
2021/12/06 03:04:33;;;;;;;15.10;12.10;;;3.40;99.90;;;;;;4998806;28;20959;-70
2021/12/06 03:06:59;;;;;;;13.93;12.50;;;3.40;99.90;;;;;;5010466;28;20445;-71
2021/12/06 03:09:29;;;;;;;17.93;12.73;;;3.50;99.90;;;;;;5008458;28;20434;-71
2021/12/06 03:12:01;;;;;;;13.63;12.30;;;3.50;99.90;;;;;;4999857;28;20832;-71
2021/12/06 03:14:32;;;;;;;13.00;11.80;;;3.50;99.90;;;;;;4993585;28;20442;-71
2021/12/06 03:17:00;;;;;;;14.93;12.13;;;3.50;99.90;;;;;;5000450;28;20505;-70
2021/12/06 03:19:27;;;;;;;13.60;11.47;;;3.50;99.90;;;;;;4990077;28;20434;-70
2021/12/06 03:21:52;;;;;;;12.83;11.63;;;3.50;99.90;;;;;;4993232;28;20477;-71
2021/12/06 03:24:19;;;;;;;13.40;10.97;;;3.50;99.90;;;;;;5009681;28;20429;-69
2021/12/06 03:26:46;;;;;;;15.73;12.37;;;3.50;99.90;;;;;;5005004;28;20293;-70
2021/12/06 03:29:12;;;;;;;13.90;12.67;;;3.60;99.90;;;;;;5004758;28;20985;-71
2021/12/06 03:31:38;;;;;;;15.00;12.80;;;3.60;99.90;;;;;;5009182;28;20940;-71
2021/12/06 03:34:06;;;;;;;12.90;11.50;;;3.50;99.90;;;;;;5011584;28;20438;-71
2021/12/06 03:36:33;;;;;;;15.57;12.37;;;3.50;99.90;;;;;;4992666;28;20661;-70
2021/12/06 03:39:00;;;;;;;12.70;10.40;;;3.60;99.90;;;;;;5003121;28;20943;-71
2021/12/06 03:41:28;;;;;;;12.87;11.53;;;3.60;99.90;;;;;;5003844;28;20462;-71
2021/12/06 03:43:54;;;;;;;12.93;10.87;;;3.70;99.90;;;;;;4993037;28;20431;-70
2021/12/06 03:46:21;;;;;;;10.50;9.43;;;3.60;99.90;;;;;;5004330;28;20447;-71
2021/12/06 03:48:47;;;;;;;12.83;9.97;;;3.60;99.90;;;;;;5006317;28;20482;-70
2021/12/06 03:51:13;;;;;;;10.70;9.70;;;3.60;99.90;;;;;;4992840;28;20513;-70
2021/12/06 03:53:39;;;;;;;10.70;9.70;;;3.50;99.90;;;;;;5005522;28;20179;-70
2021/12/06 03:56:05;;;;;;;12.10;9.93;;;3.60;99.90;;;;;;4998204;28;20447;-70
2021/12/06 03:58:32;;;;;;;11.67;10.47;;;3.50;99.90;;;;;;4992868;28;20916;-71
2021/12/06 04:00:58;;;;;;;11.97;10.77;;;3.60;99.90;;;;;;5003448;28;20601;-70
2021/12/06 04:03:26;;;;;;;14.80;10.40;;;3.60;99.90;;;;;;4994017;28;20458;-70
2021/12/06 04:05:53;;;;;;;10.73;9.73;;;3.60;99.90;;;;;;4998523;28;20485;-71
2021/12/06 04:08:19;;;;;;;10.60;9.00;;;3.50;99.90;;;;;;4995989;28;20434;-70
2021/12/06 04:10:45;;;;;;;11.63;10.53;;;3.50;99.90;;;;;;4999938;28;20793;-71
2021/12/06 04:13:11;;;;;;;11.90;10.70;;;3.60;99.90;;;;;;4998383;28;20531;-70
2021/12/06 04:15:40;;;;;;;10.73;9.73;;;3.70;99.90;;;;;;4992238;28;20449;-70
2021/12/06 04:18:05;;;;;;;13.10;10.90;;;3.60;99.90;;;;;;4981755;28;20989;-70
2021/12/06 04:20:31;;;;;;;11.70;9.83;;;3.60;99.90;;;;;;5001813;28;20545;-70
2021/12/06 04:22:57;;;;;;;13.77;9.77;;;3.50;99.90;;;;;;4996319;28;20172;-71
2021/12/06 04:25:23;;;;;;;11.37;10.07;;;3.60;99.90;;;;;;4999753;28;20198;-71
2021/12/06 04:27:55;;;;;;;12.00;10.10;;;3.60;99.90;;;;;;5008149;28;20484;-70
2021/12/06 04:30:24;;;;;;;10.83;9.77;;;3.70;99.90;;;;;;5000889;28;20493;-70
2021/12/06 04:32:53;;;;;;;10.50;9.30;;;3.70;99.90;;;;;;4992683;28;20435;-70
2021/12/06 04:35:19;;;;;;;10.47;9.37;;;3.60;99.90;;;;;;4991542;28;21017;-70
2021/12/06 04:37:44;;;;;;;13.53;9.93;;;3.70;99.90;;;;;;4985602;28;20463;-69
2021/12/06 04:40:11;;;;;;;12.07;9.83;;;3.70;99.90;;;;;;5001031;28;20245;-71
2021/12/06 04:42:38;;;;;;;12.00;10.80;;;3.80;99.90;;;;;;4991854;28;20183;-70
2021/12/06 04:45:05;;;;;;;12.20;9.97;;;3.80;99.90;;;;;;4995160;28;20490;-70
2021/12/06 04:47:31;;;;;;;16.30;10.87;;;3.70;99.90;;;;;;5005163;28;20873;-71
2021/12/06 04:49:56;;;;;;;12.57;10.40;;;3.60;99.90;;;;;;4997929;28;20430;-71
2021/12/06 04:52:23;;;;;;;12.30;11.10;;;3.40;99.90;;;;;;4995106;28;20565;-71
2021/12/06 04:54:53;;;;;;;11.80;10.70;;;3.50;99.90;;;;;;4991818;28;20214;-71
2021/12/06 04:57:46;;;;;;;15.50;11.30;;;3.60;99.90;;;;;;4993968;28;20587;-71
2021/12/06 05:00:24;;;;;;;14.90;12.07;;;3.50;99.90;;;;;;4992153;28;20446;-70
2021/12/06 05:02:49;;;;;;;13.30;11.67;;;3.50;99.90;;;;;;5000909;28;20435;-71
2021/12/06 05:05:20;;;;;;;12.67;11.47;;;3.50;99.90;;;;;;4998251;28;20440;-70
2021/12/06 05:07:53;;;;;;;16.70;12.20;;;3.50;99.90;;;;;;4995573;28;20258;-71
2021/12/06 05:10:19;;;;;;;13.63;12.33;;;3.50;99.90;;;;;;4994448;28;20430;-71
2021/12/06 05:12:46;;;;;;;14.50;13.13;;;3.50;99.90;;;;;;4996186;28;20866;-70
2021/12/06 05:15:12;;;;;;;15.80;13.33;;;3.50;99.90;;;;;;5011457;28;20861;-70
2021/12/06 05:17:38;;;;;;;14.30;12.83;;;3.50;99.90;;;;;;5013118;28;20458;-70
2021/12/06 05:20:05;;;;;;;14.30;12.70;;;3.60;99.90;;;;;;5005475;28;20438;-70
2021/12/06 05:22:31;;;;;;;15.53;13.50;;;3.60;99.90;;;;;;4995615;28;20207;-71
2021/12/06 05:24:56;;;;;;;17.53;13.63;;;3.80;99.90;;;;;;5011375;28;20434;-70
2021/12/06 05:27:28;;;;;;;16.03;13.83;;;3.70;99.90;;;;;;5011098;28;20669;-71
2021/12/06 05:29:58;;;;;;;15.93;14.00;;;3.80;99.90;;;;;;5003452;28;20186;-70
2021/12/06 05:32:26;;;;;;;17.00;15.13;;;3.80;99.90;;;;;;4995294;28;20529;-70
2021/12/06 05:35:01;;;;;;;21.17;15.43;;;3.90;99.90;;;;;;5011851;28;20429;-71
2021/12/06 05:37:28;;;;;;;18.70;14.63;;;3.90;99.90;;;;;;4999243;28;20449;-71
2021/12/06 05:39:54;;;;;;;16.63;14.70;;;4.00;99.90;;;;;;5014548;28;20442;-70
2021/12/06 05:42:20;;;;;;;16.63;13.97;;;4.00;99.90;;;;;;5007575;28;20489;-70
2021/12/06 05:44:45;;;;;;;17.87;13.10;;;3.90;99.90;;;;;;5014494;28;20461;-71
2021/12/06 05:47:11;;;;;;;14.30;12.90;;;3.80;99.90;;;;;;4999762;28;20205;-71
2021/12/06 05:49:37;;;;;;;14.90;13.50;;;3.70;99.90;;;;;;5006630;28;20588;-70
2021/12/06 05:52:03;;;;;;;17.30;15.47;;;3.60;99.90;;;;;;5005746;28;20529;-70
2021/12/06 05:54:29;;;;;;;17.43;14.90;;;3.70;99.90;;;;;;5005886;28;20442;-70
2021/12/06 05:56:56;;;;;;;18.90;15.63;;;3.70;99.90;;;;;;4999239;28;20536;-70
2021/12/06 05:59:22;;;;;;;17.13;14.83;;;3.70;99.90;;;;;;5010394;28;20204;-70
2021/12/06 06:01:50;;;;;;;20.10;14.57;;;3.80;99.90;;;;;;5002670;28;20466;-70
2021/12/06 06:04:16;;;;;;;16.03;14.40;;;3.90;99.90;;;;;;5005044;28;20183;-70
2021/12/06 06:06:42;;;;;;;18.80;16.77;;;3.90;99.90;;;;;;4994440;28;20979;-70
2021/12/06 06:09:07;;;;;;;22.27;16.17;;;3.80;99.90;;;;;;5009209;28;20434;-70
2021/12/06 06:11:34;;;;;;;23.80;17.27;;;3.80;99.90;;;;;;5006252;28;20258;-70
2021/12/06 06:14:04;;;;;;;19.57;16.20;;;3.80;99.90;;;;;;5010836;28;20241;-70
2021/12/06 06:16:33;;;;;;;15.50;13.90;;;3.90;99.90;;;;;;5012300;28;20472;-70
2021/12/06 06:18:59;;;;;;;18.53;15.40;;;3.80;99.90;;;;;;4999774;28;20441;-70
2021/12/06 06:21:25;;;;;;;16.00;13.80;;;3.80;99.90;;;;;;5010649;28;20460;-70
2021/12/06 06:23:51;;;;;;;19.87;16.00;;;3.80;99.90;;;;;;4994168;28;20438;-70
2021/12/06 06:26:16;;;;;;;19.70;15.93;;;3.80;99.90;;;;;;5001731;28;20847;-70
2021/12/06 06:28:42;;;;;;;18.97;16.60;;;3.90;99.90;;;;;;5006744;28;20667;-70
2021/12/06 06:31:08;;;;;;;18.30;16.07;;;3.90;99.90;;;;;;5008800;28;20187;-69
2021/12/06 06:33:34;;;;;;;18.40;15.40;;;3.90;99.90;;;;;;5011007;28;20450;-69
2021/12/06 06:36:00;;;;;;;21.93;17.60;;;3.90;99.90;;;;;;5013213;28;20515;-71
2021/12/06 06:38:25;;;;;;;23.67;18.10;;;3.90;99.90;;;;;;4996636;28;20188;-70
2021/12/06 06:40:51;;;;;;;21.57;17.23;;;3.90;99.90;;;;;;5005441;28;20217;-70
2021/12/06 06:43:18;;;;;;;23.17;18.27;;;3.80;99.90;;;;;;4994982;28;20184;-69
2021/12/06 06:45:44;;;;;;;23.10;18.47;;;3.90;99.90;;;;;;5011487;28;20436;-70
2021/12/06 06:48:10;;;;;;;22.23;16.90;;;3.90;99.90;;;;;;5000701;28;20513;-70
2021/12/06 06:50:36;;;;;;;19.50;17.47;;;3.90;99.90;;;;;;5013714;28;20438;-70
2021/12/06 06:53:05;;;;;;;21.27;17.77;;;3.90;99.90;;;;;;4998045;28;20451;-70
2021/12/06 06:55:31;;;;;;;30.30;17.80;;;3.90;99.90;;;;;;4992422;28;20183;-71
2021/12/06 06:57:57;;;;;;;20.70;16.70;;;3.90;99.90;;;;;;4994763;28;20434;-70
2021/12/06 07:00:29;;;;;;;21.10;16.40;;;3.80;99.90;;;;;;4994730;28;20204;-69
2021/12/06 07:02:54;;;;;;;21.23;16.63;;;3.90;99.90;;;;;;4994349;28;20522;-70
2021/12/06 07:05:21;;;;;;;24.37;19.23;;;3.90;99.90;;;;;;5008385;28;20577;-70
2021/12/06 07:07:47;;;;;;;25.67;19.03;;;3.90;99.90;;;;;;5001284;28;20210;-69
2021/12/06 07:10:13;;;;;;;24.97;18.30;;;4.00;99.90;;;;;;5002011;28;20427;-70
2021/12/06 07:12:46;;;;;;;22.17;16.43;;;3.90;99.90;;;;;;4999604;28;20191;-70
2021/12/06 07:15:16;;;;;;;19.80;15.80;;;4.00;99.90;;;;;;5008936;28;20179;-69
2021/12/06 07:17:43;;;;;;;25.67;16.13;;;3.90;99.90;;;;;;4992991;28;20461;-70
2021/12/06 07:20:10;;;;;;;23.00;18.00;;;3.90;99.90;;;;;;4993108;28;20446;-70
2021/12/06 07:22:36;;;;;;;23.07;17.43;;;3.90;99.90;;;;;;4997931;28;20433;-71
2021/12/06 07:25:04;;;;;;;19.30;15.77;;;3.80;99.90;;;;;;4982813;28;20435;-70
2021/12/06 07:27:30;;;;;;;25.40;15.97;;;3.80;99.90;;;;;;4959187;28;20456;-70
2021/12/06 07:29:55;;;;;;;23.03;16.63;;;3.90;99.90;;;;;;4990010;28;20430;-70
2021/12/06 07:32:21;;;;;;;21.40;16.87;;;3.90;99.90;;;;;;4988240;28;20223;-69
2021/12/06 07:34:48;;;;;;;20.07;15.70;;;3.90;99.90;;;;;;4991591;28;20571;-69
2021/12/06 07:37:13;;;;;;;22.03;16.50;;;4.00;99.90;;;;;;4994154;28;20200;-70
2021/12/06 07:39:39;;;;;;;25.20;18.30;;;4.00;99.90;;;;;;5004653;28;20443;-70
2021/12/06 07:42:05;;;;;;;22.10;16.60;;;3.90;99.90;;;;;;4997589;28;20249;-69
2021/12/06 07:44:31;;;;;;;23.40;15.80;;;3.90;99.90;;;;;;5000503;28;20180;-69
2021/12/06 07:46:57;;;;;;;23.50;18.40;;;3.90;99.90;;;;;;4993344;28;20199;-69
2021/12/06 07:49:23;;;;;;;24.70;18.20;;;4.00;99.90;;;;;;5002731;28;20439;-70
2021/12/06 07:51:49;;;;;;;22.10;16.13;;;4.00;99.90;;;;;;4994247;28;20249;-70
2021/12/06 07:54:15;;;;;;;21.50;16.37;;;4.00;99.90;;;;;;5008541;28;20472;-69
2021/12/06 07:56:41;;;;;;;22.33;15.93;;;4.00;99.90;;;;;;4991950;28;20486;-69
2021/12/06 07:59:07;;;;;;;26.20;17.03;;;3.80;99.90;;;;;;4996126;28;20194;-69
2021/12/06 08:01:33;;;;;;;23.03;16.87;;;3.80;99.90;;;;;;4992079;28;20839;-69
2021/12/06 08:04:00;;;;;;;26.33;19.33;;;3.80;99.90;;;;;;4990151;28;20523;-68
2021/12/06 08:06:26;;;;;;;27.57;20.40;;;4.00;99.90;;;;;;4994495;28;20206;-69
2021/12/06 08:08:52;;;;;;;25.17;17.83;;;4.00;99.90;;;;;;4997278;28;20447;-69
2021/12/06 08:11:19;;;;;;;25.30;17.20;;;4.00;99.90;;;;;;4999462;28;20526;-69
2021/12/06 08:13:50;;;;;;;22.47;17.40;;;4.00;99.90;;;;;;4997184;28;20242;-69
2021/12/06 08:16:19;;;;;;;22.10;16.20;;;4.10;99.90;;;;;;4991889;28;20466;-69
2021/12/06 08:18:46;;;;;;;20.53;14.77;;;4.20;99.90;;;;;;5007943;28;20433;-69
2021/12/06 08:21:14;;;;;;;20.60;16.67;;;4.30;99.90;;;;;;4994955;28;20473;-69
2021/12/06 08:23:41;;;;;;;21.93;16.20;;;4.30;99.90;;;;;;5003025;28;20513;-70
2021/12/06 08:26:08;;;;;;;24.23;16.40;;;4.30;99.90;;;;;;4988784;28;20478;-76
2021/12/06 08:28:35;;;;;;;23.23;14.60;;;4.30;99.90;;;;;;4997370;28;20426;-69
2021/12/06 08:31:03;;;;;;;23.67;14.90;;;4.50;99.90;;;;;;4999163;28;20450;-69
2021/12/06 08:33:29;;;;;;;18.23;13.47;;;4.50;99.90;;;;;;4986255;28;20467;-69
2021/12/06 08:35:56;;;;;;;15.60;12.67;;;4.60;99.90;;;;;;4998147;28;20836;-67
2021/12/06 08:38:27;;;;;;;17.87;14.20;;;4.70;99.90;;;;;;4992911;28;20902;-66
2021/12/06 08:40:54;;;;;;;20.50;13.40;;;4.70;99.90;;;;;;4991866;28;20465;-69
2021/12/06 08:43:20;;;;;;;15.47;12.20;;;4.60;99.90;;;;;;4999379;28;20470;-68
2021/12/06 08:46:11;;;;;;;16.27;12.87;;;4.70;99.90;;;;;;4999071;28;20497;-67
2021/12/06 08:48:40;;;;;;;15.47;12.30;;;4.70;99.90;;;;;;4984549;28;20446;-68
2021/12/06 08:51:16;;;;;;;18.90;12.53;;;4.80;99.90;;;;;;4995116;28;20468;-68
2021/12/06 08:53:42;;;;;;;15.30;11.77;;;4.90;99.90;;;;;;5003369;28;20445;-68
2021/12/06 08:56:08;;;;;;;15.70;12.90;;;4.80;99.90;;;;;;4998645;28;20470;-68
2021/12/06 08:58:35;;;;;;;18.30;13.10;;;4.60;99.90;;;;;;4995553;28;20500;-68
2021/12/06 09:01:01;;;;;;;17.57;12.80;;;4.70;99.90;;;;;;5010452;28;20911;-68
2021/12/06 09:03:28;;;;;;;18.97;13.53;;;4.80;99.90;;;;;;5002323;28;20920;-68
2021/12/06 09:05:55;;;;;;;18.27;14.97;;;5.00;99.90;;;;;;4997879;28;20454;-68
2021/12/06 09:08:21;;;;;;;18.63;14.13;;;5.10;99.90;;;;;;5006941;28;20818;-68
2021/12/06 09:10:50;;;;;;;18.60;13.40;;;5.20;99.90;;;;;;4997582;28;20872;-68
2021/12/06 09:13:18;;;;;;;18.20;13.07;;;5.40;99.90;;;;;;4997191;28;20476;-68
2021/12/06 09:15:43;;;;;;;19.10;14.43;;;5.40;99.90;;;;;;4995971;28;20442;-70
2021/12/06 09:18:09;;;;;;;20.80;13.83;;;5.70;99.90;;;;;;4995177;28;20500;-68
2021/12/06 09:20:38;;;;;;;15.27;12.60;;;5.80;99.90;;;;;;5005901;28;20198;-66
2021/12/06 09:23:05;;;;;;;17.43;13.57;;;6.10;99.90;;;;;;5002588;28;20186;-68
2021/12/06 09:25:32;;;;;;;16.67;14.10;;;6.30;99.90;;;;;;4991619;28;20509;-67
2021/12/06 09:27:59;;;;;;;18.67;14.43;;;6.70;99.90;;;;;;4993163;28;20435;-68
2021/12/06 09:30:30;;;;;;;25.93;16.17;;;6.80;99.90;;;;;;4993396;28;20786;-68
2021/12/06 09:32:58;;;;;;;16.57;13.30;;;6.60;99.90;;;;;;4993370;28;20485;-68
2021/12/06 09:35:27;;;;;;;20.50;16.30;;;6.50;99.90;;;;;;4983752;28;20861;-68
2021/12/06 09:37:55;;;;;;;19.87;14.30;;;6.30;99.90;;;;;;5001875;28;20444;-67
2021/12/06 09:40:22;;;;;;;16.60;12.83;;;6.40;99.90;;;;;;4996330;28;20580;-68
2021/12/06 09:42:48;;;;;;;16.93;14.97;;;6.60;99.90;;;;;;4995585;28;20449;-68
2021/12/06 09:45:20;;;;;;;16.70;13.13;;;6.60;99.90;;;;;;4991692;28;20482;-68
2021/12/06 09:47:51;;;;;;;17.40;12.47;;;6.30;99.90;;;;;;4997251;28;20504;-68
2021/12/06 09:50:21;;;;;;;14.73;12.20;;;6.40;99.90;;;;;;4997567;28;20446;-69
2021/12/06 09:52:47;;;;;;;15.00;11.43;;;6.40;99.90;;;;;;4997793;28;20437;-67
2021/12/06 09:55:12;;;;;;;19.47;13.10;;;6.40;99.90;;;;;;5003387;28;20453;-69
2021/12/06 09:57:38;;;;;;;16.80;12.93;;;6.00;99.90;;;;;;4999846;28;20195;-69
2021/12/06 10:00:07;;;;;;;15.70;12.20;;;6.00;99.90;;;;;;5001929;28;20187;-68
2021/12/06 10:02:32;;;;;;;16.43;12.10;;;5.80;99.90;;;;;;4997552;28;20194;-69
2021/12/06 10:04:58;;;;;;;17.07;12.53;;;5.70;99.90;;;;;;4994975;28;20833;-68
2021/12/06 10:07:25;;;;;;;16.10;12.77;;;5.80;99.90;;;;;;4992905;28;20207;-69
2021/12/06 10:09:51;;;;;;;17.50;12.50;;;5.80;99.90;;;;;;4990665;28;20278;-68
2021/12/06 10:12:18;;;;;;;19.10;12.77;;;5.60;99.90;;;;;;5000624;28;20441;-68
2021/12/06 10:14:45;;;;;;;23.47;15.27;;;5.50;99.90;;;;;;4992782;28;20442;-67
2021/12/06 10:17:12;;;;;;;16.10;11.80;;;5.60;99.90;;;;;;4982690;28;20454;-68
2021/12/06 10:19:37;;;;;;;17.40;12.57;;;5.80;99.90;;;;;;4995963;28;20430;-69
2021/12/06 10:22:03;;;;;;;15.43;10.53;;;6.10;99.90;;;;;;4990506;28;20473;-69
2021/12/06 10:24:31;;;;;;;11.27;9.20;;;6.30;99.90;;;;;;4998758;28;20179;-68
2021/12/06 10:27:13;;;;;;;10.07;8.10;;;6.50;99.90;;;;;;4994503;28;20214;-69
2021/12/06 10:29:46;;;;;;;9.77;8.00;;;6.70;99.90;;;;;;5001136;28;20584;-68
2021/12/06 10:32:24;;;;;;;11.67;8.33;;;6.80;99.90;;;;;;5002109;28;20437;-68
2021/12/06 10:34:56;;;;;;;13.17;7.77;;;6.60;99.90;;;;;;4993493;28;20442;-69
2021/12/06 10:37:54;;;;;;;10.13;7.83;;;6.50;99.90;;;;;;4994260;28;21006;-67
2021/12/06 10:40:32;;;;;;;9.73;7.00;;;6.30;99.90;;;;;;4978619;28;20493;-69
2021/12/06 10:43:01;;;;;;;13.77;8.50;;;6.10;99.90;;;;;;5003069;28;20560;-68
2021/12/06 10:45:33;;;;;;;11.30;8.67;;;5.90;99.90;;;;;;4996434;28;20429;-68
2021/12/06 10:48:19;;;;;;;12.93;9.30;;;5.70;99.90;;;;;;4998482;28;20517;-67
2021/12/06 10:50:50;;;;;;;13.83;8.57;;;5.80;99.90;;;;;;5007170;28;21119;-68
2021/12/06 10:53:18;;;;;;;8.63;6.90;;;5.90;99.90;;;;;;4992611;28;20478;-68
2021/12/06 10:55:44;;;;;;;10.60;7.77;;;5.90;99.90;;;;;;4990547;28;20442;-68
2021/12/06 10:58:19;;;;;;;10.27;6.80;;;6.20;99.90;;;;;;5001595;28;20462;-67
2021/12/06 11:01:00;;;;;;;8.53;7.03;;;6.60;99.90;;;;;;4997862;28;20855;-68
2021/12/06 11:03:36;;;;;;;8.97;6.20;;;6.80;99.90;;;;;;4992777;28;20434;-70
2021/12/06 11:06:18;;;;;;;22.63;16.73;;;6.80;99.90;;;;;;5004533;28;20460;-68
2021/12/06 11:08:44;;;;;;;9.10;7.90;;;6.90;99.90;;;;;;5001030;28;20469;-68
2021/12/06 11:11:19;;;;;;;9.93;7.23;;;6.70;99.90;;;;;;5006480;28;20573;-68
2021/12/06 11:13:47;;;;;;;9.87;7.80;;;6.50;99.90;;;;;;5002906;28;20425;-68
2021/12/06 11:16:31;;;;;;;10.47;6.93;;;6.40;99.90;;;;;;4993269;28;21038;-67
2021/12/06 11:19:04;;;;;;;8.13;6.23;;;6.40;99.90;;;;;;4993206;28;20434;-66
2021/12/06 11:21:38;;;;;;;10.40;6.97;;;6.50;99.90;;;;;;5000258;28;20923;-69
2021/12/06 11:24:11;;;;;;;7.37;5.60;;;6.70;99.90;;;;;;4998344;28;20435;-68
2021/12/06 11:26:41;;;;;;;6.60;5.73;;;6.70;99.90;;;;;;4995076;28;20561;-68
2021/12/06 11:29:09;;;;;;;6.40;5.70;;;7.00;99.90;;;;;;4982883;28;20419;-68
2021/12/06 11:31:35;;;;;;;6.90;5.10;;;7.20;99.90;;;;;;5000396;28;20434;-69
2021/12/06 11:34:05;;;;;;;6.13;4.93;;;7.50;99.90;;;;;;5001574;28;20599;-69
2021/12/06 11:36:31;;;;;;;5.20;4.70;;;7.50;99.90;;;;;;4996541;28;20455;-67
2021/12/06 11:39:08;;;;;;;8.90;5.83;;;7.30;99.90;;;;;;5006576;28;20458;-68
2021/12/06 11:41:34;;;;;;;5.80;4.40;;;7.40;99.90;;;;;;5004570;28;20454;-69
2021/12/06 11:44:14;;;;;;;7.03;5.20;;;7.30;99.90;;;;;;4996107;28;20806;-71
2021/12/06 11:46:39;;;;;;;5.17;4.67;;;7.40;99.90;;;;;;4988008;28;20971;-68
2021/12/06 11:49:35;;;;;;;6.60;4.70;;;7.30;99.90;;;;;;4992704;28;20451;-68
2021/12/06 11:52:02;;;;;;;6.23;5.17;;;7.60;99.90;;;;;;4989486;28;20249;-68
2021/12/06 11:54:39;;;;;;;5.13;4.50;;;7.70;99.90;;;;;;4991526;28;20434;-68
2021/12/06 11:57:17;;;;;;;5.40;4.83;;;7.70;99.90;;;;;;4993217;28;20453;-68
2021/12/06 11:59:57;;;;;;;7.23;5.67;;;7.60;99.90;;;;;;4997872;28;20442;-68
2021/12/06 12:02:47;;;;;;;8.30;6.30;;;7.60;99.90;;;;;;4988430;28;20466;-68
2021/12/06 12:05:15;;;;;;;6.73;5.40;;;7.70;99.90;;;;;;4993869;28;20442;-68
2021/12/06 12:08:12;;;;;;;4.67;4.27;;;7.50;99.90;;;;;;5003718;28;20450;-68
2021/12/06 12:10:53;;;;;;;7.73;6.10;;;8.40;99.90;;;;;;4977531;28;20884;-68
2021/12/06 12:13:24;;;;;;;6.03;5.40;;;10.60;99.90;;;;;;4996178;28;20448;-68
2021/12/06 12:15:57;;;;;;;9.43;7.43;;;11.00;99.90;;;;;;4988754;28;20509;-68
2021/12/06 12:18:23;;;;;;;6.60;4.83;;;10.70;99.90;;;;;;4999269;28;20807;-68
2021/12/06 12:20:51;;;;;;;5.50;5.00;;;10.40;99.90;;;;;;5001464;28;20462;-68
2021/12/06 12:23:16;;;;;;;4.40;4.00;;;11.80;99.90;;;;;;4998741;28;20855;-69
2021/12/06 12:31:16;;;;;;;5.80;5.23;;;12.60;99.90;;;;;;4990198;28;20441;-69
2021/12/06 12:33:42;;;;;;;5.77;5.20;;;11.70;99.90;;;;;;4999079;28;20514;-68
2021/12/06 12:36:11;;;;;;;5.83;5.33;;;10.80;99.90;;;;;;4995068;28;20825;-68
2021/12/06 12:38:39;;;;;;;6.90;6.20;;;10.40;99.90;;;;;;5004592;28;20434;-68
2021/12/06 12:41:12;;;;;;;6.33;4.87;;;10.00;99.90;;;;;;5002503;28;20997;-68
2021/12/06 12:43:43;;;;;;;5.83;5.30;;;10.50;99.90;;;;;;4999571;28;20479;-68
2021/12/06 12:46:16;;;;;;;7.00;6.40;;;12.70;99.90;;;;;;4991570;28;20489;-69
2021/12/06 12:48:53;;;;;;;7.97;6.90;;;12.20;99.90;;;;;;4999332;28;20791;-69
2021/12/06 12:51:37;;;;;;;7.23;6.53;;;12.10;99.90;;;;;;4998709;28;20466;-68
2021/12/06 12:54:05;;;;;;;13.83;11.40;;;11.70;99.90;;;;;;4990768;28;20440;-68
2021/12/06 12:56:33;;;;;;;10.27;7.00;;;11.40;99.90;;;;;;4992668;28;20465;-69
2021/12/06 12:59:25;;;;;;;7.10;6.30;;;11.20;99.90;;;;;;4996735;28;20496;-68
2021/12/06 13:02:10;;;;;;;6.50;5.90;;;11.90;99.90;;;;;;4998795;28;20990;-69
2021/12/06 13:04:57;;;;;;;5.97;5.37;;;15.50;98.50;;;;;;4996640;28;20426;-69
2021/12/06 13:07:27;;;;;;;6.20;5.70;;;19.40;86.60;;;;;;4997601;28;20449;-69
2021/12/06 13:09:54;;;;;;;5.90;5.50;;;21.30;73.10;;;;;;5007862;28;20993;-69